createdAt,value
2018-09-02T00:00:36.319Z,98933.43
2018-09-02T00:03:05.521Z,98928.63
2018-09-02T00:05:34.134Z,98928.22
2018-09-02T00:08:03.502Z,98926.11
2018-09-02T00:10:32.174Z,98926.85
2018-09-02T00:13:00.548Z,98921.22
2018-09-02T00:15:29.075Z,98927.19
2018-09-02T00:17:57.476Z,98926.42
2018-09-02T00:20:25.896Z,98924.89
2018-09-02T00:22:54.924Z,98921.94
2018-09-02T00:25:23.303Z,98920.15
2018-09-02T00:27:51.703Z,98918.13
2018-09-02T00:30:20.114Z,98924.17
2018-09-02T00:32:48.496Z,98915.30
2018-09-02T00:35:16.849Z,98913.25
2018-09-02T00:37:45.210Z,98915.79
2018-09-02T00:40:13.558Z,98912.39
2018-09-02T00:42:42.118Z,98909.96
2018-09-02T00:45:10.498Z,98908.97
2018-09-02T00:47:39.146Z,98915.18
2018-09-02T00:50:08.438Z,98923.48
2018-09-02T00:52:37.288Z,98912.27
2018-09-02T00:55:05.813Z,98901.48
2018-09-02T00:57:34.184Z,98907.30
2018-09-02T01:00:03.320Z,98910.69
2018-09-02T01:02:31.948Z,98907.68
2018-09-02T01:05:00.294Z,98911.11
2018-09-02T01:07:28.983Z,98908.77
2018-09-02T01:09:57.344Z,98907.77
2018-09-02T01:12:25.764Z,98911.83
2018-09-02T01:14:54.118Z,98905.48
2018-09-02T01:17:22.563Z,98907.30
2018-09-02T01:19:51.063Z,98909.39
2018-09-02T01:22:19.539Z,98901.38
2018-09-02T01:24:48.475Z,98905.28
2018-09-02T01:27:16.822Z,98900.91
2018-09-02T01:29:45.179Z,98897.17
2018-09-02T01:32:14.455Z,98900.56
2018-09-02T01:34:42.836Z,98893.91
2018-09-02T01:37:11.756Z,98894.77
2018-09-02T01:39:40.156Z,98895.35
2018-09-02T01:42:08.537Z,98886.96
2018-09-02T01:44:36.918Z,98896.20
2018-09-02T01:47:05.660Z,98894.26
2018-09-02T01:49:34.065Z,98891.96
2018-09-02T01:52:02.701Z,98893.08
2018-09-02T01:54:31.076Z,98887.72
2018-09-02T01:56:59.542Z,98884.67
2018-09-02T01:59:27.963Z,98880.55
2018-09-02T02:01:56.325Z,98877.13
2018-09-02T02:04:27.261Z,98876.17
2018-09-02T02:06:55.635Z,98870.86
2018-09-02T02:09:24.209Z,98876.33
2018-09-02T02:11:52.609Z,98865.48
2018-09-02T02:14:20.964Z,98866.45
2018-09-02T02:16:49.349Z,98864.66
2018-09-02T02:19:17.921Z,98865.37
2018-09-02T02:21:46.330Z,98860.14
2018-09-02T02:24:14.708Z,98862.57
2018-09-02T02:26:44.165Z,98859.86
2018-09-02T02:29:12.873Z,98862.01
2018-09-02T02:31:41.324Z,98855.47
2018-09-02T02:34:09.732Z,98856.95
2018-09-02T02:36:38.241Z,98856.66
2018-09-02T02:39:08.909Z,98855.00
2018-09-02T02:41:37.433Z,98856.23
2018-09-02T02:44:06.006Z,98850.31
2018-09-02T02:46:34.673Z,98849.02
2018-09-02T02:49:03.317Z,98853.13
2018-09-02T02:51:31.777Z,98846.82
2018-09-02T02:54:00.303Z,98844.14
2018-09-02T02:56:28.739Z,98846.58
2018-09-02T02:58:57.110Z,98846.00
2018-09-02T03:01:25.423Z,98837.36
2018-09-02T03:03:54.497Z,98835.28
2018-09-02T03:12:21.696Z,98834.66
2018-09-02T03:14:50.131Z,98835.76
2018-09-02T03:17:18.582Z,98835.66
2018-09-02T03:19:47.569Z,98833.80
2018-09-02T03:22:16.234Z,98835.31
2018-09-02T03:24:44.689Z,98829.59
2018-09-02T03:27:13.170Z,98829.59
2018-09-02T03:29:41.627Z,98826.81
2018-09-02T03:32:10.051Z,98829.22
2018-09-02T03:34:38.516Z,98828.73
2018-09-02T03:37:07.409Z,98828.75
2018-09-02T03:39:36.092Z,98824.28
2018-09-02T03:42:04.526Z,98825.00
2018-09-02T03:44:32.936Z,98825.84
2018-09-02T03:47:01.566Z,98825.84
2018-09-02T03:49:29.958Z,98821.11
2018-09-02T03:51:58.379Z,98824.16
2018-09-02T03:54:26.926Z,98826.20
2018-09-02T03:56:55.554Z,98820.63
2018-09-02T03:59:24.005Z,98821.25
2018-09-02T04:01:52.407Z,98820.41
2018-09-02T04:04:20.831Z,98817.95
2018-09-02T04:06:49.294Z,98818.34
2018-09-02T04:09:17.709Z,98819.55
2018-09-02T04:11:46.211Z,98817.73
2018-09-02T04:14:14.869Z,98817.84
2018-09-02T04:16:43.573Z,98816.38
2018-09-02T04:19:12.025Z,98816.14
2018-09-02T04:21:40.671Z,98817.50
2018-09-02T04:24:09.108Z,98814.95
2018-09-02T04:26:37.645Z,98815.91
2018-09-02T04:29:06.088Z,98817.50
2018-09-02T04:31:34.493Z,98812.98
2018-09-02T04:34:02.873Z,98815.66
2018-09-02T04:36:31.247Z,98811.65
2018-09-02T04:38:59.617Z,98810.20
2018-09-02T04:41:28.150Z,98804.63
2018-09-02T04:43:56.622Z,98803.41
2018-09-02T04:46:25.074Z,98800.88
2018-09-02T04:48:53.497Z,98804.86
2018-09-02T04:51:21.799Z,98800.98
2018-09-02T04:53:50.177Z,98804.86
2018-09-02T04:56:18.617Z,98805.98
2018-09-02T04:58:46.985Z,98803.41
2018-09-02T05:01:15.402Z,98803.64
2018-09-02T05:03:43.804Z,98802.80
2018-09-02T05:06:13.375Z,98809.60
2018-09-02T05:08:41.753Z,98813.23
2018-09-02T05:11:10.159Z,98807.17
2018-09-02T05:13:38.653Z,98806.31
2018-09-02T05:16:07.084Z,98805.70
2018-09-02T05:18:35.787Z,98808.98
2018-09-02T05:21:04.268Z,98808.32
2018-09-02T05:23:32.766Z,98810.36
2018-09-02T05:26:01.305Z,98809.25
2018-09-02T05:28:29.658Z,98812.22
2018-09-02T05:30:58.205Z,98803.70
2018-09-02T05:33:26.557Z,98808.79
2018-09-02T05:35:54.970Z,98797.74
2018-09-02T05:38:23.509Z,98802.22
2018-09-02T05:40:51.912Z,98796.95
2018-09-02T05:43:20.429Z,98802.03
2018-09-02T05:45:48.763Z,98801.61
2018-09-02T05:48:17.159Z,98804.01
2018-09-02T05:50:45.565Z,98801.48
2018-09-02T05:53:14.014Z,98808.28
2018-09-02T05:55:42.504Z,98804.86
2018-09-02T05:58:10.876Z,98810.43
2018-09-02T06:00:40.270Z,98808.75
2018-09-02T06:03:08.711Z,98813.23
2018-09-02T06:05:37.183Z,98812.27
2018-09-02T06:08:05.671Z,98813.71
2018-09-02T06:10:34.292Z,98818.58
2018-09-02T06:13:02.694Z,98819.30
2018-09-02T06:15:31.104Z,98815.53
2018-09-02T06:17:59.523Z,98821.35
2018-09-02T06:20:28.106Z,98815.28
2018-09-02T06:22:56.492Z,98820.74
2018-09-02T06:25:25.186Z,98814.19
2018-09-02T06:27:53.560Z,98823.53
2018-09-02T06:30:22.351Z,98814.66
2018-09-02T06:32:50.842Z,98816.48
2018-09-02T06:35:19.314Z,98815.14
2018-09-02T06:37:47.878Z,98817.53
2018-09-02T06:40:16.950Z,98820.97
2018-09-02T06:42:45.375Z,98822.02
2018-09-02T06:45:13.837Z,98818.20
2018-09-02T06:52:29.907Z,98819.39
2018-09-02T06:54:58.375Z,98828.91
2018-09-02T06:57:26.782Z,98828.34
2018-09-02T06:59:55.212Z,98819.89
2018-09-02T07:02:23.718Z,98827.33
2018-09-02T07:04:52.161Z,98830.36
2018-09-02T07:07:21.356Z,98830.23
2018-09-02T07:09:49.724Z,98819.15
2018-09-02T07:12:18.210Z,98821.62
2018-09-02T07:14:46.602Z,98819.89
2018-09-02T07:17:15.087Z,98822.47
2018-09-02T07:19:43.686Z,98821.76
2018-09-02T07:22:12.114Z,98828.66
2018-09-02T07:24:41.455Z,98822.78
2018-09-02T07:27:09.942Z,98827.44
2018-09-02T07:29:38.413Z,98825.86
2018-09-02T07:32:07.484Z,98826.30
2018-09-02T07:34:35.951Z,98820.64
2018-09-02T07:37:04.438Z,98826.16
2018-09-02T07:39:32.797Z,98819.67
2018-09-02T07:42:01.210Z,98813.47
2018-09-02T07:44:29.666Z,98819.58
2018-09-02T07:46:58.170Z,98817.69
2018-09-02T07:49:26.582Z,98815.83
2018-09-02T07:51:55.077Z,98817.55
2018-09-02T07:54:23.479Z,98817.08
2018-09-02T07:56:52.330Z,98820.19
2018-09-02T07:59:20.783Z,98822.47
2018-09-02T08:01:49.142Z,98822.41
2018-09-02T08:04:17.717Z,98825.34
2018-09-02T08:06:46.071Z,98827.03
2018-09-02T08:09:14.456Z,98820.08
2018-09-02T08:11:42.838Z,98825.99
2018-09-02T08:14:11.216Z,98826.63
2018-09-02T08:16:40.184Z,98822.35
2018-09-02T08:19:08.936Z,98828.88
2018-09-02T08:21:37.491Z,98822.34
2018-09-02T08:24:05.938Z,98835.13
2018-09-02T08:26:35.275Z,98830.72
2018-09-02T08:29:03.719Z,98836.44
2018-09-02T08:31:32.092Z,98829.37
2018-09-02T08:34:00.514Z,98832.66
2018-09-02T08:36:29.052Z,98825.77
2018-09-02T08:38:57.461Z,98813.48
2018-09-02T08:41:25.984Z,98817.33
2018-09-02T08:43:54.595Z,98823.20
2018-09-02T08:46:23.230Z,98823.69
2018-09-02T08:48:51.771Z,98814.34
2018-09-02T08:51:20.144Z,98823.83
2018-09-02T08:53:48.555Z,98822.16
2018-09-02T08:56:16.940Z,98819.06
2018-09-02T08:58:45.314Z,98818.35
2018-09-02T09:01:13.808Z,98825.53
2018-09-02T09:03:42.204Z,98827.16
2018-09-02T09:06:10.615Z,98824.75
2018-09-02T09:08:39.441Z,98827.02
2018-09-02T09:11:08.841Z,98831.28
2018-09-02T09:13:37.507Z,98825.66
2018-09-02T09:16:05.998Z,98824.76
2018-09-02T09:18:35.514Z,98822.78
2018-09-02T09:21:04.000Z,98825.05
2018-09-02T09:23:32.545Z,98820.06
2018-09-02T09:26:01.392Z,98823.57
2018-09-02T09:28:29.928Z,98818.01
2018-09-02T09:30:58.375Z,98805.86
2018-09-02T09:33:27.080Z,98818.42
2018-09-02T09:35:56.108Z,98807.49
2018-09-02T09:38:24.584Z,98802.61
2018-09-02T09:40:53.142Z,98808.88
2018-09-02T09:43:21.727Z,98803.47
2018-09-02T09:45:50.909Z,98795.16
2018-09-02T09:48:19.877Z,98800.46
2018-09-02T09:50:48.656Z,98794.22
2018-09-02T09:53:17.796Z,98794.52
2018-09-02T09:55:46.249Z,98801.71
2018-09-02T09:58:15.086Z,98803.97
2018-09-02T10:00:50.925Z,98802.58
2018-09-02T10:03:20.160Z,98798.75
2018-09-02T10:05:48.925Z,98789.74
2018-09-02T10:08:17.725Z,98788.89
2018-09-02T10:10:46.388Z,98783.50
2018-09-02T10:13:14.988Z,98788.39
2018-09-02T10:15:43.702Z,98783.63
2018-09-02T10:18:13.334Z,98787.73
2018-09-02T10:20:41.918Z,98787.55
2018-09-02T10:23:10.443Z,98785.30
2018-09-02T10:25:39.789Z,98782.97
2018-09-02T10:28:08.432Z,98781.03
2018-09-02T10:30:38.131Z,98779.48
2018-09-02T10:33:07.332Z,98784.31
2018-09-02T10:35:36.025Z,98780.83
2018-09-02T10:38:04.975Z,98783.38
2018-09-02T10:40:34.111Z,98779.49
2018-09-02T10:43:03.707Z,98774.19
2018-09-02T10:45:32.212Z,98786.98
2018-09-02T10:48:01.008Z,98768.44
2018-09-02T10:50:29.602Z,98774.01
2018-09-02T10:52:59.870Z,98766.79
2018-09-02T10:55:28.289Z,98767.42
2018-09-02T10:57:57.254Z,98758.05
2018-09-02T11:00:32.316Z,98752.52
2018-09-02T11:03:00.796Z,98752.99
2018-09-02T11:05:29.267Z,98748.72
2018-09-02T11:07:57.687Z,98743.02
2018-09-02T11:10:26.118Z,98752.24
2018-09-02T11:12:54.547Z,98752.64
2018-09-02T11:15:23.117Z,98747.80
2018-09-02T11:17:51.628Z,98746.00
2018-09-02T11:20:20.183Z,98744.73
2018-09-02T11:22:48.588Z,98742.49
2018-09-02T11:25:16.928Z,98748.43
2018-09-02T11:27:45.365Z,98748.77
2018-09-02T11:30:13.775Z,98741.38
2018-09-02T11:32:42.271Z,98735.11
2018-09-02T11:35:10.832Z,98749.14
2018-09-02T11:37:39.413Z,98744.13
2018-09-02T11:40:07.853Z,98736.31
2018-09-02T11:42:36.577Z,98733.75
2018-09-02T11:45:05.147Z,98740.34
2018-09-02T11:47:33.522Z,98740.41
2018-09-02T11:50:01.919Z,98740.84
2018-09-02T11:52:30.556Z,98733.91
2018-09-02T11:54:59.027Z,98742.38
2018-09-02T11:57:28.253Z,98733.33
2018-09-02T11:59:57.302Z,98737.09
2018-09-02T12:02:25.760Z,98733.06
2018-09-02T12:04:54.257Z,98741.20
2018-09-02T12:07:22.572Z,98734.07
2018-09-02T12:09:51.194Z,98736.33
2018-09-02T12:12:19.589Z,98737.73
2018-09-02T12:14:48.002Z,98728.98
2018-09-02T12:17:16.389Z,98727.01
2018-09-02T12:19:44.907Z,98731.08
2018-09-02T12:22:13.417Z,98731.38
2018-09-02T12:24:41.769Z,98737.18
2018-09-02T12:27:10.342Z,98736.60
2018-09-02T12:29:38.752Z,98744.52
2018-09-02T12:32:07.267Z,98741.84
2018-09-02T12:34:35.852Z,98738.68
2018-09-02T12:37:04.331Z,98736.91
2018-09-02T12:39:32.800Z,98730.04
2018-09-02T12:42:01.153Z,98731.69
2018-09-02T12:44:29.599Z,98734.68
2018-09-02T12:46:58.063Z,98729.08
2018-09-02T12:49:26.455Z,98735.09
2018-09-02T12:51:54.971Z,98729.01
2018-09-02T12:54:23.652Z,98731.98
2018-09-02T12:56:51.967Z,98728.92
2018-09-02T12:59:20.486Z,98729.78
2018-09-02T13:01:49.032Z,98731.69
2018-09-02T13:04:17.667Z,98727.23
2018-09-02T13:06:46.985Z,98725.45
2018-09-02T13:09:15.416Z,98720.95
2018-09-02T13:11:44.145Z,98722.70
2018-09-02T13:14:12.855Z,98723.63
2018-09-02T13:16:41.508Z,98717.48
2018-09-02T13:19:10.053Z,98717.59
2018-09-02T13:21:38.490Z,98709.30
2018-09-02T13:24:07.041Z,98717.38
2018-09-02T13:26:35.491Z,98712.65
2018-09-02T13:29:05.373Z,98713.29
2018-09-02T13:31:33.809Z,98709.98
2018-09-02T13:34:02.223Z,98706.62
2018-09-02T13:36:30.642Z,98707.47
2018-09-02T13:38:58.948Z,98698.80
2018-09-02T13:41:27.334Z,98705.50
2018-09-02T13:43:55.756Z,98705.67
2018-09-02T13:46:24.805Z,98708.95
2018-09-02T13:48:53.278Z,98712.36
2018-09-02T13:51:21.973Z,98709.35
2018-09-02T13:53:50.319Z,98706.03
2018-09-02T13:56:18.802Z,98700.31
2018-09-02T13:58:47.261Z,98701.80
2018-09-02T14:01:16.512Z,98697.70
2018-09-02T14:03:44.966Z,98701.22
2018-09-02T14:06:14.364Z,98698.34
2018-09-02T14:08:42.788Z,98698.91
2018-09-02T14:11:11.360Z,98693.82
2018-09-02T14:13:39.784Z,98691.64
2018-09-02T14:16:08.146Z,98694.79
2018-09-02T14:18:36.909Z,98691.48
2018-09-02T14:21:06.107Z,98683.27
2018-09-02T14:23:34.850Z,98686.09
2018-09-02T14:26:03.391Z,98693.61
2018-09-02T14:28:33.070Z,98685.73
2018-09-02T14:31:01.451Z,98687.92
2018-09-02T14:33:29.849Z,98689.09
2018-09-02T14:35:58.398Z,98684.65
2018-09-02T14:38:26.790Z,98694.30
2018-09-02T14:40:55.578Z,98692.98
2018-09-02T14:43:24.143Z,98692.78
2018-09-02T14:45:52.555Z,98688.80
2018-09-02T14:48:21.147Z,98688.38
2018-09-02T14:50:49.627Z,98690.91
2018-09-02T14:53:17.995Z,98685.59
2018-09-02T14:55:46.377Z,98678.30
2018-09-02T14:58:14.821Z,98680.70
2018-09-02T15:00:43.335Z,98683.91
2018-09-02T15:03:11.740Z,98675.97
2018-09-02T15:05:40.313Z,98674.94
2018-09-02T15:08:08.718Z,98668.96
2018-09-02T15:10:37.219Z,98675.00
2018-09-02T15:13:05.599Z,98668.87
2018-09-02T15:15:33.969Z,98671.11
2018-09-02T15:18:02.365Z,98669.02
2018-09-02T15:20:30.885Z,98672.34
2018-09-02T15:22:59.724Z,98675.02
2018-09-02T15:25:28.773Z,98674.11
2018-09-02T15:27:58.203Z,98672.83
2018-09-02T15:30:27.888Z,98677.52
2018-09-02T15:32:56.806Z,98675.14
2018-09-02T15:35:26.306Z,98671.11
2018-09-02T15:37:55.385Z,98668.13
2018-09-02T15:40:24.463Z,98675.02
2018-09-02T15:42:53.537Z,98679.12
2018-09-02T15:45:23.189Z,98668.06
2018-09-02T15:47:52.324Z,98672.55
2018-09-02T15:50:21.354Z,98670.65
2018-09-02T15:52:50.260Z,98666.73
2018-09-02T15:55:19.382Z,98663.43
2018-09-02T15:57:48.543Z,98660.34
2018-09-02T16:00:17.567Z,98652.71
2018-09-02T16:02:46.561Z,98655.66
2018-09-02T16:05:15.640Z,98651.77
2018-09-02T16:07:44.513Z,98651.86
2018-09-02T16:10:13.391Z,98650.58
2018-09-02T16:12:42.830Z,98654.95
2018-09-02T16:15:11.835Z,98649.19
2018-09-02T16:17:41.004Z,98654.96
2018-09-02T16:20:10.361Z,98645.73
2018-09-02T16:22:39.282Z,98642.98
2018-09-02T16:25:08.400Z,98645.95
2018-09-02T16:27:37.498Z,98649.94
2018-09-02T16:30:06.998Z,98647.68
2018-09-02T16:32:35.962Z,98649.97
2018-09-02T16:35:05.579Z,98652.80
2018-09-02T16:37:34.647Z,98650.47
2018-09-02T16:40:03.909Z,98651.28
2018-09-02T16:42:32.972Z,98645.86
2018-09-02T16:45:02.474Z,98640.81
2018-09-02T16:47:31.777Z,98640.17
2018-09-02T16:50:00.709Z,98646.53
2018-09-02T16:52:29.780Z,98641.95
2018-09-02T16:54:58.556Z,98649.46
2018-09-02T16:57:27.564Z,98641.55
2018-09-02T16:59:56.508Z,98643.95
2018-09-02T17:02:25.844Z,98635.82
2018-09-02T17:04:59.639Z,98639.53
2018-09-02T17:07:28.743Z,98635.05
2018-09-02T17:09:57.550Z,98637.98
2018-09-02T17:12:26.613Z,98637.34
2018-09-02T17:14:55.773Z,98635.36
2018-09-02T17:17:24.780Z,98631.30
2018-09-02T17:19:56.351Z,98630.49
2018-09-02T17:22:25.306Z,98622.70
2018-09-02T17:24:54.412Z,98620.14
2018-09-02T17:27:23.326Z,98612.01
2018-09-02T17:29:52.317Z,98618.20
2018-09-02T17:32:22.508Z,98614.68
2018-09-02T17:34:52.642Z,98614.02
2018-09-02T17:37:21.585Z,98618.59
2018-09-02T17:39:50.483Z,98618.03
2018-09-02T17:42:19.470Z,98616.02
2018-09-02T17:44:48.448Z,98610.12
2018-09-02T17:47:17.465Z,98608.71
2018-09-02T17:49:46.424Z,98617.05
2018-09-02T17:52:16.202Z,98615.02
2018-09-02T17:54:45.468Z,98609.28
2018-09-02T17:57:14.545Z,98609.34
2018-09-02T17:59:44.774Z,98608.80
2018-09-02T18:02:13.714Z,98614.41
2018-09-02T18:04:42.656Z,98613.76
2018-09-02T18:07:11.665Z,98611.51
2018-09-02T18:09:40.877Z,98619.72
2018-09-02T18:12:09.985Z,98618.30
2018-09-02T18:14:39.039Z,98620.58
2018-09-02T18:17:08.614Z,98619.61
2018-09-02T18:19:37.638Z,98622.09
2018-09-02T18:22:07.265Z,98626.32
2018-09-02T18:24:36.285Z,98626.00
2018-09-02T18:27:05.507Z,98625.09
2018-09-02T18:29:34.675Z,98620.86
2018-09-02T18:32:04.007Z,98629.59
2018-09-02T18:34:33.583Z,98624.39
2018-09-02T18:37:02.706Z,98630.73
2018-09-02T18:39:31.864Z,98625.19
2018-09-02T18:42:00.926Z,98628.99
2018-09-02T18:44:30.012Z,98628.54
2018-09-02T18:46:59.354Z,98628.67
2018-09-02T18:49:28.384Z,98632.15
2018-09-02T18:51:57.795Z,98639.69
2018-09-02T18:54:27.434Z,98637.30
2018-09-02T18:56:57.777Z,98640.17
2018-09-02T18:59:27.347Z,98637.41
2018-09-02T19:01:57.390Z,98638.58
2018-09-02T19:04:26.222Z,98641.42
2018-09-02T19:06:56.050Z,98641.08
2018-09-02T19:09:25.063Z,98641.76
2018-09-02T19:11:54.650Z,98640.91
2018-09-02T19:14:24.724Z,98642.33
2018-09-02T19:16:53.838Z,98641.47
2018-09-02T19:19:23.118Z,98641.30
2018-09-02T19:21:53.145Z,98643.58
2018-09-02T19:24:22.235Z,98643.80
2018-09-02T19:26:51.229Z,98648.77
2018-09-02T19:29:20.265Z,98646.17
2018-09-02T19:31:49.514Z,98647.77
2018-09-02T19:34:18.456Z,98643.18
2018-09-02T19:36:47.274Z,98638.27
2018-09-02T19:39:16.452Z,98637.69
2018-09-02T19:41:47.156Z,98630.73
2018-09-02T19:44:16.315Z,98630.15
2018-09-02T19:46:45.809Z,98617.59
2018-09-02T19:49:14.607Z,98613.73
2018-09-02T19:51:43.989Z,98612.53
2018-09-02T19:54:13.445Z,98612.36
2018-09-02T19:56:42.554Z,98610.37
2018-09-02T19:59:11.555Z,98613.30
2018-09-02T20:01:40.583Z,98615.49
2018-09-02T20:04:10.063Z,98615.60
2018-09-02T20:06:39.830Z,98621.72
2018-09-02T20:09:11.576Z,98612.48
2018-09-02T20:11:40.661Z,98609.59
2018-09-02T20:14:10.134Z,98606.80
2018-09-02T20:16:39.281Z,98607.36
2018-09-02T20:19:08.402Z,98604.07
2018-09-02T20:21:37.598Z,98599.98
2018-09-02T20:24:06.639Z,98599.67
2018-09-02T20:26:36.472Z,98599.22
2018-09-02T20:29:05.281Z,98592.07
2018-09-02T20:31:34.434Z,98597.30
2018-09-02T20:34:03.519Z,98596.64
2018-09-02T20:36:32.450Z,98601.39
2018-09-02T20:39:01.452Z,98601.84
2018-09-02T20:41:30.420Z,98599.83
2018-09-02T20:43:59.354Z,98597.92
2018-09-02T20:46:28.528Z,98599.43
2018-09-02T20:48:57.683Z,98594.98
2018-09-02T20:51:26.629Z,98588.12
2018-09-02T20:53:55.615Z,98590.41
2018-09-02T20:56:25.033Z,98593.17
2018-09-02T20:58:54.065Z,98590.64
2018-09-02T21:01:23.156Z,98586.92
2018-09-02T21:03:52.753Z,98594.45
2018-09-02T21:06:21.808Z,98587.20
2018-09-02T21:08:50.755Z,98590.08
2018-09-02T21:11:19.964Z,98588.97
2018-09-02T21:13:49.115Z,98587.03
2018-09-02T21:16:18.493Z,98591.44
2018-09-02T21:18:47.516Z,98596.50
2018-09-02T21:21:17.545Z,98592.50
2018-09-02T21:23:46.654Z,98585.73
2018-09-02T21:26:16.123Z,98583.55
2018-09-02T21:28:45.732Z,98591.61
2018-09-02T21:31:15.110Z,98590.39
2018-09-02T21:33:44.051Z,98588.32
2018-09-02T21:36:12.971Z,98585.05
2018-09-02T21:38:41.903Z,98589.28
2018-09-02T21:41:11.087Z,98590.45
2018-09-02T21:43:40.478Z,98593.34
2018-09-02T21:46:09.928Z,98584.14
2018-09-02T21:48:39.205Z,98587.11
2018-09-02T21:51:08.365Z,98584.73
2018-09-02T21:53:38.178Z,98579.02
2018-09-02T21:56:07.283Z,98573.59
2018-09-02T21:58:36.585Z,98574.18
2018-09-02T22:01:05.604Z,98579.05
2018-09-02T22:03:34.757Z,98574.14
2018-09-02T22:06:03.524Z,98576.82
2018-09-02T22:08:32.329Z,98578.48
2018-09-02T22:11:01.805Z,98576.27
2018-09-02T22:13:30.781Z,98578.71
2018-09-02T22:15:59.599Z,98571.80
2018-09-02T22:18:28.734Z,98572.17
2018-09-02T22:20:58.551Z,98571.12
2018-09-02T22:23:28.437Z,98572.80
2018-09-02T22:25:57.319Z,98561.74
2018-09-02T22:28:26.452Z,98570.78
2018-09-02T22:30:55.377Z,98565.98
2018-09-02T22:33:24.411Z,98564.08
2018-09-02T22:35:53.358Z,98562.12
2018-09-02T22:38:22.565Z,98559.70
2018-09-02T22:40:51.726Z,98565.55
2018-09-02T22:43:20.818Z,98558.98
2018-09-02T22:45:49.587Z,98551.14
2018-09-02T22:48:18.552Z,98550.86
2018-09-02T22:50:47.799Z,98539.50
2018-09-02T22:53:17.051Z,98541.05
2018-09-02T22:55:46.055Z,98538.48
2018-09-02T22:58:15.122Z,98523.41
2018-09-02T23:00:44.772Z,98521.43
2018-09-02T23:03:13.912Z,98515.66
2018-09-02T23:05:43.400Z,98511.02
2018-09-02T23:08:12.389Z,98511.55
2018-09-02T23:10:41.420Z,98499.23
2018-09-02T23:13:10.593Z,98489.98
2018-09-02T23:15:40.403Z,98479.95
2018-09-02T23:18:09.444Z,98480.92
2018-09-02T23:20:38.312Z,98472.91
2018-09-02T23:23:07.140Z,98468.11
2018-09-02T23:25:36.066Z,98465.55
2018-09-02T23:28:05.326Z,98461.81
2018-09-02T23:30:34.298Z,98460.73
2018-09-02T23:33:03.246Z,98458.59
2018-09-02T23:35:32.257Z,98445.10
2018-09-02T23:38:01.223Z,98449.98
2018-09-02T23:40:30.211Z,98451.41
2018-09-02T23:42:59.110Z,98441.64
2018-09-02T23:45:28.076Z,98439.56
2018-09-02T23:47:57.095Z,98430.91
2018-09-02T23:50:27.158Z,98432.80
2018-09-02T23:52:56.087Z,98437.70
2018-09-02T23:55:25.220Z,98432.80
2018-09-02T23:57:54.772Z,98423.67
